Time;durP1;ratioP1;P1;durP2;ratioP2;P2;SDS_P1;SDS_P2;PMS_P1;PMS_P2;Temp;Humidity;BMP_temperature;BMP_pressure;BME280_temperature;BME280_humidity;BME280_pressure;Samples;Min_cycle;Max_cycle;Signal;HPM_P1;HPM_P2
2024/02/25 00:01:20;;;;;;;6.60;3.53;;;;;;;10.75;100.00;99833.34;5093901;28;20545;-49
2024/02/25 00:03:49;;;;;;;8.02;3.90;;;;;;;10.80;100.00;99833.00;5094069;28;20483;-47
2024/02/25 00:06:17;;;;;;;8.40;4.07;;;;;;;10.82;100.00;99820.44;5094163;28;20046;-48
2024/02/25 00:08:47;;;;;;;6.95;3.53;;;;;;;10.72;100.00;99820.22;5094100;28;20144;-49
2024/02/25 00:11:16;;;;;;;6.40;3.67;;;;;;;10.78;100.00;99817.13;5093879;28;20048;-46
2024/02/25 00:13:44;;;;;;;9.05;3.53;;;;;;;10.77;100.00;99814.56;5093755;28;20520;-47
2024/02/25 00:16:12;;;;;;;8.32;3.40;;;;;;;10.68;100.00;99809.84;5093688;28;20086;-48
2024/02/25 00:18:40;;;;;;;7.10;3.53;;;;;;;10.66;100.00;99807.28;5093798;28;20094;-49
2024/02/25 00:21:08;;;;;;;7.38;3.53;;;;;;;10.70;100.00;99827.44;5093970;28;20071;-48
2024/02/25 00:23:37;;;;;;;5.95;3.83;;;;;;;10.72;100.00;99822.88;5093997;28;20625;-48
2024/02/25 00:26:06;;;;;;;6.40;3.22;;;;;;;10.70;100.00;99821.25;5093458;28;20079;-49
2024/02/25 00:28:35;;;;;;;6.15;3.42;;;;;;;10.69;100.00;99812.41;5093271;28;20091;-46
2024/02/25 00:31:07;;;;;;;10.35;3.75;;;;;;;10.68;100.00;99810.69;5093445;28;20051;-48
2024/02/25 00:33:36;;;;;;;6.97;3.22;;;;;;;10.63;100.00;99812.84;5093202;28;20044;-46
2024/02/25 00:36:05;;;;;;;6.30;3.40;;;;;;;10.65;100.00;99821.59;5094013;28;20337;-47
2024/02/25 00:38:34;;;;;;;6.78;3.33;;;;;;;10.70;100.00;99808.78;5095170;28;20048;-47
2024/02/25 00:41:02;;;;;;;6.95;3.13;;;;;;;10.64;100.00;99819.88;5093296;28;20083;-47
2024/02/25 00:43:32;;;;;;;5.90;3.22;;;;;;;10.61;100.00;99822.72;5093111;28;20048;-49
2024/02/25 00:46:00;;;;;;;7.15;3.53;;;;;;;10.61;100.00;99825.41;5093184;28;20051;-49
2024/02/25 00:48:28;;;;;;;6.70;3.50;;;;;;;10.60;100.00;99829.03;5093281;28;20438;-50
2024/02/25 00:50:57;;;;;;;7.10;3.58;;;;;;;10.60;100.00;99821.88;5093095;28;20401;-50
2024/02/25 00:53:25;;;;;;;6.35;3.60;;;;;;;10.60;100.00;99829.03;5093107;28;20520;-49
2024/02/25 00:55:55;;;;;;;7.75;3.47;;;;;;;10.60;100.00;99818.34;5093154;28;20044;-48
2024/02/25 00:58:23;;;;;;;7.07;3.55;;;;;;;10.58;100.00;99820.28;5092834;28;20040;-49
2024/02/25 01:00:55;;;;;;;7.55;3.35;;;;;;;10.48;100.00;99824.50;5092991;28;20044;-49
2024/02/25 01:03:24;;;;;;;6.22;3.70;;;;;;;10.42;100.00;99820.47;5092536;28;20064;-50
2024/02/25 01:05:52;;;;;;;7.38;3.67;;;;;;;10.42;100.00;99830.25;5092583;28;20512;-48
2024/02/25 01:08:21;;;;;;;7.47;3.58;;;;;;;10.45;100.00;99830.06;5092720;28;20127;-51
2024/02/25 01:10:49;;;;;;;6.40;3.38;;;;;;;10.47;100.00;99834.31;5092510;28;20133;-49
2024/02/25 01:13:18;;;;;;;6.95;3.42;;;;;;;10.45;100.00;99830.06;5092625;28;20135;-47
2024/02/25 01:15:46;;;;;;;6.43;3.00;;;;;;;10.48;100.00;99840.50;5092687;28;20096;-49
2024/02/25 01:18:16;;;;;;;8.05;3.78;;;;;;;10.50;100.00;99843.94;5092606;28;20063;-50
2024/02/25 01:20:44;;;;;;;8.85;3.60;;;;;;;10.31;100.00;99846.94;5092618;28;20051;-48
2024/02/25 01:23:12;;;;;;;7.22;3.63;;;;;;;10.14;100.00;99848.03;5092334;28;20086;-49
2024/02/25 01:25:41;;;;;;;6.93;3.13;;;;;;;10.13;100.00;99862.28;5092438;28;20055;-50
2024/02/25 01:28:09;;;;;;;5.78;3.28;;;;;;;10.13;100.00;99862.28;5092208;28;20105;-47
2024/02/25 01:30:37;;;;;;;7.05;3.47;;;;;;;10.22;100.00;99867.06;5092375;28;20185;-50
2024/02/25 01:33:06;;;;;;;7.75;3.67;;;;;;;10.26;100.00;99865.91;5092149;28;20051;-47
2024/02/25 01:35:36;;;;;;;7.78;3.38;;;;;;;10.29;100.00;99873.72;5092230;28;20051;-48
2024/02/25 01:38:04;;;;;;;7.38;3.47;;;;;;;10.30;100.00;99867.41;5092377;28;20436;-49
2024/02/25 01:40:33;;;;;;;6.45;3.70;;;;;;;10.14;100.00;99863.16;5092134;28;20144;-47
2024/02/25 01:43:11;;;;;;;6.18;3.40;;;;;;;10.25;100.00;99860.69;5092089;28;20139;-47
2024/02/25 01:45:39;;;;;;;7.47;3.55;;;;;;;10.24;100.00;99851.84;5090667;28;20048;-49
2024/02/25 01:48:09;;;;;;;7.07;3.60;;;;;;;10.27;100.00;99848.97;5092031;28;20382;-50
2024/02/25 01:50:39;;;;;;;7.65;3.83;;;;;;;10.16;100.00;99855.94;5092113;28;20123;-51
2024/02/25 01:53:08;;;;;;;7.35;3.40;;;;;;;10.16;100.00;99851.44;5092064;28;20101;-49
2024/02/25 01:55:39;;;;;;;7.43;3.38;;;;;;;10.12;100.00;99849.06;5091675;28;20140;-49
2024/02/25 01:58:07;;;;;;;7.78;3.33;;;;;;;10.14;100.00;99853.38;5091748;28;20067;-48
2024/02/25 02:00:37;;;;;;;6.68;3.80;;;;;;;10.02;100.00;99860.31;5091946;28;20044;-50
2024/02/25 02:03:06;;;;;;;6.72;3.40;;;;;;;10.01;100.00;99860.41;5091529;28;20546;-47
2024/02/25 02:05:35;;;;;;;7.85;3.80;;;;;;;9.83;100.00;99859.78;5091871;28;20129;-49
2024/02/25 02:08:06;;;;;;;6.05;3.55;;;;;;;9.81;100.00;99860.84;5091605;28;20466;-49
2024/02/25 02:10:34;;;;;;;7.72;3.72;;;;;;;9.71;100.00;99850.75;5091464;28;20475;-47
2024/02/25 02:13:05;;;;;;;9.50;3.50;;;;;;;9.77;100.00;99843.34;5091564;28;20048;-49
2024/02/25 02:15:33;;;;;;;7.43;3.60;;;;;;;9.93;100.00;99849.38;5091241;28;20055;-49
2024/02/25 02:18:03;;;;;;;6.07;3.30;;;;;;;9.95;100.00;99848.34;5091370;28;20048;-49
2024/02/25 02:20:33;;;;;;;6.30;3.80;;;;;;;10.01;100.00;99852.44;5091488;28;20130;-52
2024/02/25 02:23:02;;;;;;;6.82;3.35;;;;;;;10.01;100.00;99847.09;5091309;28;20048;-47
2024/02/25 02:25:31;;;;;;;7.22;3.63;;;;;;;10.01;100.00;99845.28;5091113;28;20044;-48
2024/02/25 02:27:59;;;;;;;8.07;4.00;;;;;;;10.03;100.00;99845.19;5090929;28;20052;-48
2024/02/25 02:30:27;;;;;;;8.25;3.83;;;;;;;9.88;100.00;99839.03;5091280;28;20071;-49
2024/02/25 02:32:56;;;;;;;7.45;3.60;;;;;;;9.82;100.00;99836.75;5091185;28;20481;-47
2024/02/25 02:35:24;;;;;;;6.90;3.78;;;;;;;9.80;100.00;99835.16;5092229;28;20048;-47
2024/02/25 02:37:52;;;;;;;8.68;4.00;;;;;;;9.74;100.00;99823.91;5096852;28;20433;-47
2024/02/25 02:40:22;;;;;;;7.25;3.60;;;;;;;9.84;100.00;99831.31;5091188;28;20127;-49
2024/02/25 02:42:52;;;;;;;6.72;4.03;;;;;;;9.85;100.00;99831.25;5090704;28;20059;-48
2024/02/25 02:45:20;;;;;;;6.95;3.90;;;;;;;9.85;100.00;99838.41;5091050;28;20048;-48
2024/02/25 02:47:49;;;;;;;8.15;3.75;;;;;;;9.78;100.00;99829.06;5090850;28;20060;-47
2024/02/25 02:50:18;;;;;;;6.65;3.60;;;;;;;9.78;100.00;99834.41;5090911;28;20056;-48
2024/02/25 02:52:46;;;;;;;8.45;3.70;;;;;;;9.71;100.00;99840.09;5090900;28;20135;-47
2024/02/25 02:55:14;;;;;;;6.13;3.85;;;;;;;9.66;100.00;99842.22;5090565;28;20048;-47
2024/02/25 02:57:44;;;;;;;6.88;3.78;;;;;;;9.63;100.00;99841.53;5090897;28;20052;-48
2024/02/25 03:00:14;;;;;;;9.13;4.00;;;;;;;9.60;100.00;99847.06;5091068;28;20411;-48
2024/02/25 03:02:45;;;;;;;7.00;4.10;;;;;;;9.58;100.00;99852.50;5090927;28;20504;-51
2024/02/25 03:05:14;;;;;;;7.50;3.67;;;;;;;9.66;100.00;99855.53;5091223;28;20079;-47
2024/02/25 03:07:42;;;;;;;6.22;3.85;;;;;;;9.66;100.00;99852.88;5091408;28;20064;-51
2024/02/25 03:10:13;;;;;;;7.55;3.95;;;;;;;9.68;100.00;99852.75;5090761;28;20491;-53
2024/02/25 03:12:42;;;;;;;7.20;3.72;;;;;;;9.72;100.00;99851.59;5090606;28;20499;-48
2024/02/25 03:15:12;;;;;;;8.45;3.67;;;;;;;9.75;100.00;99852.28;5090760;28;20455;-48
2024/02/25 03:17:41;;;;;;;6.72;3.92;;;;;;;9.65;100.00;99855.59;5090623;28;20121;-47
2024/02/25 03:20:11;;;;;;;8.00;4.03;;;;;;;9.64;100.00;99852.09;5090526;28;20044;-48
2024/02/25 03:22:40;;;;;;;6.88;3.78;;;;;;;9.66;100.00;99852.88;5090452;28;20048;-49
2024/02/25 03:25:09;;;;;;;7.32;4.15;;;;;;;9.67;100.00;99849.25;5090815;28;20131;-48
2024/02/25 03:27:37;;;;;;;6.78;3.67;;;;;;;9.67;100.00;99843.06;5090500;28;20044;-49
2024/02/25 03:30:08;;;;;;;7.30;3.70;;;;;;;9.67;100.00;99849.25;5090632;28;20105;-47
2024/02/25 03:32:39;;;;;;;6.30;3.72;;;;;;;9.64;100.00;99838.78;5090632;28;20577;-52
2024/02/25 03:35:08;;;;;;;7.63;3.67;;;;;;;9.57;100.00;99841.94;5090568;28;20047;-50
2024/02/25 03:37:36;;;;;;;7.15;4.20;;;;;;;9.55;100.00;99841.16;5090329;28;20097;-48
2024/02/25 03:40:06;;;;;;;7.57;4.63;;;;;;;9.56;100.00;99838.41;5090580;28;20074;-47
2024/02/25 03:42:34;;;;;;;8.00;4.10;;;;;;;9.50;100.00;99838.78;5090608;28;20149;-48
2024/02/25 03:45:03;;;;;;;6.57;4.00;;;;;;;9.56;100.00;99838.41;5090452;28;20052;-49
2024/02/25 03:47:31;;;;;;;8.93;3.75;;;;;;;9.55;100.00;99841.16;5090280;28;20150;-52
2024/02/25 03:50:01;;;;;;;10.23;4.13;;;;;;;9.53;100.00;99838.59;5090560;28;20044;-49
2024/02/25 03:52:29;;;;;;;7.32;4.15;;;;;;;9.46;100.00;99839.94;5090554;28;20040;-49
2024/02/25 03:54:58;;;;;;;8.15;4.38;;;;;;;9.45;100.00;99843.53;5089988;28;20056;-49
2024/02/25 03:57:26;;;;;;;6.97;4.38;;;;;;;9.43;100.00;99845.44;5090207;28;20047;-49
2024/02/25 03:59:54;;;;;;;7.97;4.40;;;;;;;9.37;100.00;99845.84;5090153;28;20456;-47
2024/02/25 04:02:23;;;;;;;7.78;4.22;;;;;;;9.34;100.00;99848.66;5090273;28;20089;-50
2024/02/25 04:04:51;;;;;;;7.80;4.15;;;;;;;9.32;100.00;99847.91;5090237;28;20048;-47
2024/02/25 04:07:21;;;;;;;7.88;4.28;;;;;;;9.31;100.00;99851.53;5090210;28;20044;-47
2024/02/25 04:09:49;;;;;;;9.55;4.85;;;;;;;9.31;100.00;99847.06;5092162;28;20187;-49
2024/02/25 04:12:17;;;;;;;7.45;4.20;;;;;;;9.30;100.00;99840.03;5093837;28;20123;-48
2024/02/25 04:14:46;;;;;;;7.80;4.57;;;;;;;9.25;100.00;99838.59;5094062;28;20052;-50
2024/02/25 04:17:14;;;;;;;7.53;4.25;;;;;;;9.20;100.00;99835.38;5094994;28;20438;-49
2024/02/25 04:19:42;;;;;;;10.02;4.57;;;;;;;9.23;100.00;99843.16;5093919;28;20489;-48
2024/02/25 04:22:11;;;;;;;9.75;4.50;;;;;;;9.28;100.00;99836.59;5093690;28;20044;-50
2024/02/25 04:24:40;;;;;;;9.43;5.00;;;;;;;9.25;100.00;99835.91;5093502;28;20135;-47
2024/02/25 04:27:09;;;;;;;10.70;5.18;;;;;;;9.13;100.00;99838.38;5093354;28;20067;-49
2024/02/25 04:29:38;;;;;;;8.50;4.70;;;;;;;9.14;100.00;99840.09;5093340;28;20055;-47
2024/02/25 04:32:07;;;;;;;9.40;4.50;;;;;;;9.14;100.00;99834.78;5093603;28;20101;-49
2024/02/25 04:34:35;;;;;;;8.60;4.65;;;;;;;9.12;100.00;99835.81;5093577;28;20347;-47
2024/02/25 04:37:04;;;;;;;7.53;4.80;;;;;;;9.10;100.00;99849.22;5098680;28;20048;-48
2024/02/25 04:39:35;;;;;;;7.78;4.63;;;;;;;9.12;100.00;99847.31;5094145;28;20408;-51
2024/02/25 04:42:05;;;;;;;8.32;4.40;;;;;;;9.17;100.00;99857.69;5093346;28;20385;-49
2024/02/25 04:44:33;;;;;;;10.13;4.95;;;;;;;9.28;100.00;99851.72;5093023;28;20487;-47
2024/02/25 04:47:02;;;;;;;8.23;4.88;;;;;;;9.25;100.00;99850.09;5093442;28;20087;-48
2024/02/25 04:49:30;;;;;;;7.53;4.60;;;;;;;9.22;100.00;99854.75;5093295;28;20059;-49
2024/02/25 04:51:59;;;;;;;8.73;4.47;;;;;;;9.11;100.00;99856.25;5093296;28;20044;-49
2024/02/25 04:54:27;;;;;;;8.23;4.47;;;;;;;9.09;100.00;99858.16;5092802;28;20086;-49
2024/02/25 04:56:56;;;;;;;8.57;4.70;;;;;;;9.04;100.00;99848.72;5093212;28;20075;-49
2024/02/25 04:59:25;;;;;;;11.15;4.88;;;;;;;8.88;100.00;99851.47;5093090;28;20052;-47
2024/02/25 05:01:54;;;;;;;9.52;5.18;;;;;;;8.89;100.00;99846.06;5092868;28;20409;-48
2024/02/25 05:04:24;;;;;;;13.23;5.05;;;;;;;8.79;100.00;99852.88;5092899;28;20052;-46
2024/02/25 05:06:52;;;;;;;13.02;5.53;;;;;;;8.87;100.00;99857.72;5092679;28;20051;-45
2024/02/25 05:09:21;;;;;;;9.10;4.60;;;;;;;8.86;100.00;99861.31;5092683;28;20074;-48
2024/02/25 05:11:49;;;;;;;9.82;4.70;;;;;;;8.83;100.00;99851.72;5093148;28;20456;-49
2024/02/25 05:14:18;;;;;;;8.57;4.82;;;;;;;8.79;100.00;99850.22;5092725;28;20075;-48
2024/02/25 05:16:51;;;;;;;7.80;5.18;;;;;;;8.81;100.00;99860.75;5092962;28;20051;-47
2024/02/25 05:19:20;;;;;;;9.88;4.53;;;;;;;8.86;100.00;99848.88;5092496;28;20044;-50
2024/02/25 05:21:48;;;;;;;9.20;4.80;;;;;;;8.87;100.00;99858.56;5092318;28;20131;-48
2024/02/25 05:24:18;;;;;;;8.20;4.97;;;;;;;8.82;100.00;99854.47;5092324;28;20500;-49
2024/02/25 05:26:47;;;;;;;10.57;4.85;;;;;;;8.98;100.00;99862.41;5092547;28;20489;-50
2024/02/25 05:29:15;;;;;;;9.07;4.85;;;;;;;8.92;100.00;99855.66;5092381;28;20048;-50
2024/02/25 05:31:43;;;;;;;11.25;5.40;;;;;;;8.88;100.00;99857.66;5092297;28;20507;-48
2024/02/25 05:34:13;;;;;;;9.10;5.20;;;;;;;8.89;100.00;99864.66;5092454;28;20055;-47
2024/02/25 05:36:42;;;;;;;11.95;5.50;;;;;;;8.88;100.00;99862.09;5092197;28;20393;-50
2024/02/25 05:39:11;;;;;;;10.48;5.25;;;;;;;8.80;100.00;99867.03;5092226;28;20130;-49
2024/02/25 05:41:40;;;;;;;10.82;5.43;;;;;;;8.75;100.00;99869.06;5092356;28;20109;-49
2024/02/25 05:44:11;;;;;;;9.15;5.20;;;;;;;8.74;100.00;99868.22;5091948;28;20048;-47
2024/02/25 05:46:39;;;;;;;8.23;4.90;;;;;;;8.76;100.00;99865.47;5091842;28;20040;-47
2024/02/25 05:49:08;;;;;;;10.10;4.93;;;;;;;8.71;100.00;99859.59;5092215;28;20078;-49
2024/02/25 05:51:38;;;;;;;9.32;5.43;;;;;;;8.75;100.00;99859.28;5091939;28;20044;-47
2024/02/25 05:54:06;;;;;;;8.82;4.95;;;;;;;8.81;100.00;99863.41;5091610;28;20055;-47
2024/02/25 05:56:34;;;;;;;7.93;4.78;;;;;;;8.89;100.00;99866.47;5091776;28;20044;-50
2024/02/25 05:59:03;;;;;;;8.25;4.88;;;;;;;8.97;100.00;99869.50;5091657;28;20044;-47
2024/02/25 06:01:35;;;;;;;10.02;5.60;;;;;;;8.87;100.00;99863.88;5092086;28;20090;-50
2024/02/25 06:04:03;;;;;;;11.80;5.30;;;;;;;8.79;100.00;99862.66;5091573;28;20055;-48
2024/02/25 06:06:32;;;;;;;9.10;5.63;;;;;;;8.79;100.00;99873.28;5091732;28;20044;-49
2024/02/25 06:09:04;;;;;;;10.65;5.57;;;;;;;8.80;100.00;99882.97;5091445;28;20097;-50
2024/02/25 06:11:33;;;;;;;11.03;5.50;;;;;;;8.85;100.00;99880.88;5091688;28;20151;-49
2024/02/25 06:14:02;;;;;;;11.68;5.70;;;;;;;8.76;100.00;99876.09;5090294;28;20047;-47
2024/02/25 06:16:32;;;;;;;9.85;5.40;;;;;;;8.66;100.00;99881.09;5091663;28;20052;-48
2024/02/25 06:19:01;;;;;;;10.30;5.95;;;;;;;8.41;100.00;99886.13;5091399;28;20055;-48
2024/02/25 06:21:30;;;;;;;12.82;6.45;;;;;;;8.46;100.00;99874.28;5091546;28;20052;-48
2024/02/25 06:23:59;;;;;;;8.63;5.60;;;;;;;8.55;100.00;99873.75;5091836;28;20048;-47
2024/02/25 06:26:28;;;;;;;10.50;6.03;;;;;;;8.64;100.00;99877.69;5091118;28;20052;-50
2024/02/25 06:28:58;;;;;;;10.85;5.57;;;;;;;8.67;100.00;99876.63;5091464;28;20047;-46
2024/02/25 06:31:30;;;;;;;10.13;5.95;;;;;;;8.73;100.00;99868.31;5089846;28;20046;-48
2024/02/25 06:33:58;;;;;;;10.70;5.85;;;;;;;8.82;100.00;99878.41;5091741;28;20055;-48
2024/02/25 06:36:27;;;;;;;10.27;5.93;;;;;;;8.87;100.00;99876.31;5092671;28;20082;-49
2024/02/25 06:38:57;;;;;;;14.27;7.03;;;;;;;8.78;100.00;99863.56;5093063;28;20048;-46
2024/02/25 06:41:25;;;;;;;10.68;6.18;;;;;;;8.83;100.00;99857.03;5091271;28;20040;-51
2024/02/25 06:43:55;;;;;;;10.75;6.25;;;;;;;8.78;100.00;99868.88;5091190;28;20126;-48
2024/02/25 06:46:24;;;;;;;13.77;6.60;;;;;;;8.79;100.00;99874.13;5089932;28;20080;-50
2024/02/25 06:48:52;;;;;;;10.93;6.78;;;;;;;8.56;100.00;99864.81;5090982;28;20067;-48
2024/02/25 06:51:21;;;;;;;11.02;6.38;;;;;;;8.55;100.00;99863.13;5090874;28;20051;-47
2024/02/25 06:53:50;;;;;;;11.85;6.63;;;;;;;8.56;100.00;99867.47;5090806;28;20056;-49
2024/02/25 06:56:19;;;;;;;13.65;6.50;;;;;;;8.56;100.00;99859.50;5090949;28;20058;-48
2024/02/25 06:58:48;;;;;;;12.57;6.90;;;;;;;8.59;100.00;99870.00;5090792;28;20078;-50
2024/02/25 07:01:19;;;;;;;15.05;6.35;;;;;;;8.63;100.00;99869.81;5091026;28;20495;-50
2024/02/25 07:03:49;;;;;;;12.93;6.95;;;;;;;8.50;100.00;99875.84;5090811;28;20227;-48
2024/02/25 07:06:17;;;;;;;11.63;7.07;;;;;;;8.51;100.00;99866.06;5090791;28;20143;-47
2024/02/25 07:08:46;;;;;;;12.48;7.65;;;;;;;8.54;100.00;99864.06;5091100;28;20055;-48
2024/02/25 07:11:17;;;;;;;14.18;7.78;;;;;;;8.77;100.00;99872.50;5090919;28;20134;-49
2024/02/25 07:13:46;;;;;;;14.43;7.55;;;;;;;8.78;100.00;99872.44;5091027;28;20051;-48
2024/02/25 07:16:15;;;;;;;14.15;7.45;;;;;;;8.89;100.00;99872.66;5090812;28;20093;-48
2024/02/25 07:18:45;;;;;;;14.00;7.65;;;;;;;9.09;100.00;99865.28;5091195;28;20052;-48
2024/02/25 07:21:15;;;;;;;14.45;7.85;;;;;;;9.24;100.00;99871.47;5091893;28;20052;-50
2024/02/25 07:23:43;;;;;;;17.60;9.88;;;;;;;9.27;100.00;99876.63;5091479;28;20044;-49
2024/02/25 07:26:14;;;;;;;13.25;7.43;;;;;;;9.13;100.00;99878.31;5090768;28;20135;-49
2024/02/25 07:28:43;;;;;;;15.55;9.60;;;;;;;9.14;100.00;99877.34;5090954;28;20044;-49
2024/02/25 07:31:15;;;;;;;14.38;8.43;;;;;;;9.37;100.00;99870.66;5090684;28;20131;-49
2024/02/25 07:33:46;;;;;;;12.32;8.13;;;;;;;9.46;100.00;99866.56;5090624;28;20182;-48
2024/02/25 07:36:16;;;;;;;12.63;7.57;;;;;;;9.56;100.00;99873.03;5090798;28;20102;-48
2024/02/25 07:38:45;;;;;;;12.95;8.38;;;;;;;9.69;100.00;99876.63;5090537;28;20094;-47
2024/02/25 07:41:13;;;;;;;13.32;8.40;;;;;;;9.78;100.00;99879.69;5086888;28;20040;-48
2024/02/25 07:43:42;;;;;;;12.57;7.10;;;;;;;9.73;100.00;99880.81;5091088;28;20097;-49
2024/02/25 07:46:10;;;;;;;12.10;7.35;;;;;;;9.52;100.00;99881.28;5095259;28;20056;-46
2024/02/25 07:48:42;;;;;;;12.18;7.05;;;;;;;9.34;100.00;99880.59;5093880;28;20051;-48
2024/02/25 07:51:12;;;;;;;18.20;10.68;;;;;;;9.42;100.00;99876.53;5094594;28;20051;-46
2024/02/25 07:53:40;;;;;;;39.95;20.00;;;;;;;9.59;100.00;99879.97;5094352;28;20437;-48
2024/02/25 07:56:08;;;;;;;22.75;14.05;;;;;;;9.57;100.00;99877.41;5094432;28;20489;-48
2024/02/25 07:58:37;;;;;;;16.10;9.68;;;;;;;9.78;100.00;99885.88;5094008;28;20496;-46
2024/02/25 08:01:10;;;;;;;14.40;8.88;;;;;;;9.96;100.00;99886.50;5093992;28;20113;-50
2024/02/25 08:03:38;;;;;;;14.60;9.07;;;;;;;10.38;100.00;99879.41;5093827;28;20563;-48
2024/02/25 08:06:07;;;;;;;13.90;8.75;;;;;;;10.41;100.00;99887.19;5093616;28;20055;-51
2024/02/25 08:08:37;;;;;;;16.30;9.32;;;;;;;10.31;100.00;99889.59;5093910;28;20040;-46
2024/02/25 08:11:05;;;;;;;14.75;9.57;;;;;;;10.47;100.00;99886.81;5093671;28;20044;-50
2024/02/25 08:13:35;;;;;;;14.27;8.77;;;;;;;10.43;100.00;99879.97;5094112;28;20063;-48
2024/02/25 08:16:04;;;;;;;16.48;8.60;;;;;;;10.38;100.00;99880.25;5094051;28;20415;-47
2024/02/25 08:18:32;;;;;;;15.52;8.68;;;;;;;10.37;100.00;99875.03;5093975;28;20044;-47
2024/02/25 08:21:02;;;;;;;14.00;8.77;;;;;;;10.52;100.00;99874.03;5093552;28;20113;-47
2024/02/25 08:23:30;;;;;;;25.63;14.95;;;;;;;10.50;100.00;99881.25;5093520;28;20417;-49
2024/02/25 08:26:00;;;;;;;19.73;12.23;;;;;;;10.32;100.00;99881.50;5093771;28;20056;-47
2024/02/25 08:28:28;;;;;;;14.45;8.82;;;;;;;10.13;100.00;99874.75;5093673;28;20370;-50
2024/02/25 08:30:57;;;;;;;14.95;8.45;;;;;;;10.28;100.00;99872.00;5093350;28;20044;-47
2024/02/25 08:33:25;;;;;;;16.15;8.73;;;;;;;10.34;100.00;99867.25;5093530;28;20127;-47
2024/02/25 08:35:53;;;;;;;13.13;8.35;;;;;;;10.49;100.00;99875.06;5093525;28;20055;-50
2024/02/25 08:38:22;;;;;;;17.33;8.77;;;;;;;10.54;100.00;99872.13;5093597;28;20085;-49
2024/02/25 08:40:50;;;;;;;15.32;8.60;;;;;;;10.53;100.00;99870.41;5091944;28;20048;-49
2024/02/25 08:43:20;;;;;;;10.80;7.18;;;;;;;10.28;100.00;99872.00;5093368;28;20048;-48
2024/02/25 08:45:48;;;;;;;13.60;8.20;;;;;;;10.54;100.00;99862.31;5093190;28;20202;-50
2024/02/25 08:48:17;;;;;;;12.43;7.57;;;;;;;10.70;100.00;99869.28;5092293;28;20074;-45
2024/02/25 08:50:47;;;;;;;13.70;7.97;;;;;;;10.88;100.00;99870.72;5092716;28;20051;-45
2024/02/25 08:53:16;;;;;;;12.93;8.00;;;;;;;10.83;100.00;99868.38;5093090;28;20327;-47
2024/02/25 08:55:44;;;;;;;11.73;6.75;;;;;;;11.14;100.00;99866.28;5092496;28;20087;-48
2024/02/25 08:58:13;;;;;;;13.02;8.00;;;;;;;11.10;100.00;99870.13;5093323;28;20087;-49
2024/02/25 09:00:44;;;;;;;11.65;7.35;;;;;;;10.97;100.00;99878.09;5093039;28;20075;-48
2024/02/25 09:03:14;;;;;;;13.38;7.75;;;;;;;10.85;100.00;99885.13;5093010;28;20485;-46
2024/02/25 09:05:43;;;;;;;11.85;7.38;;;;;;;10.93;100.00;99879.28;5093202;28;20044;-47
2024/02/25 09:08:12;;;;;;;11.45;7.28;;;;;;;11.02;100.00;99881.31;5092914;28;20223;-50
2024/02/25 09:10:40;;;;;;;10.82;6.85;;;;;;;11.18;100.00;99883.78;5092610;28;20172;-49
2024/02/25 09:13:12;;;;;;;12.63;7.00;;;;;;;11.46;100.00;99878.25;5092365;28;20095;-47
2024/02/25 09:15:42;;;;;;;10.68;7.18;;;;;;;11.64;100.00;99875.25;5092403;28;20413;-51
2024/02/25 09:18:10;;;;;;;10.40;7.13;;;;;;;11.40;100.00;99878.69;5092738;28;20105;-49
2024/02/25 09:20:39;;;;;;;12.32;7.25;;;;;;;11.49;100.00;99866.53;5092892;28;20044;-50
2024/02/25 09:23:07;;;;;;;11.15;6.57;;;;;;;11.62;100.00;99854.00;5092512;28;20106;-48
2024/02/25 09:25:36;;;;;;;11.00;6.53;;;;;;;11.87;100.00;99845.13;5092578;28;20089;-47
2024/02/25 09:28:05;;;;;;;11.18;6.63;;;;;;;11.87;100.00;99850.47;5092384;28;20044;-50
2024/02/25 09:30:33;;;;;;;8.80;6.13;;;;;;;11.78;100.00;99853.78;5092309;28;20093;-48
2024/02/25 09:33:05;;;;;;;10.13;6.50;;;;;;;11.83;100.00;99846.28;5092522;28;20048;-46
2024/02/25 09:35:33;;;;;;;11.27;6.72;;;;;;;11.76;100.00;99836.97;5092630;28;20048;-48
2024/02/25 09:38:02;;;;;;;11.88;6.97;;;;;;;11.83;100.00;99832.94;5092283;28;20048;-47
2024/02/25 09:40:30;;;;;;;9.32;6.60;;;;;;;11.92;100.00;99828.75;5091917;28;20055;-47
2024/02/25 09:42:59;;;;;;;11.10;6.18;;;;;;;11.95;100.00;99820.50;5091709;28;20481;-48
2024/02/25 09:45:33;;;;;;;10.88;5.93;;;;;;;12.34;100.00;99816.72;5092200;28;20149;-49
2024/02/25 09:48:03;;;;;;;12.38;6.72;;;;;;;12.46;100.00;99821.19;5092280;28;20093;-53
2024/02/25 09:50:34;;;;;;;9.85;6.28;;;;;;;12.39;100.00;99819.91;5092164;28;20592;-49
2024/02/25 09:53:03;;;;;;;11.85;5.88;;;;;;;12.19;100.00;99818.72;5092279;28;20044;-50
2024/02/25 09:55:31;;;;;;;11.27;6.32;;;;;;;12.20;100.00;99825.78;5092052;28;20465;-49
2024/02/25 09:58:00;;;;;;;9.82;5.82;;;;;;;12.39;100.00;99822.59;5092378;28;20159;-48
2024/02/25 10:00:28;;;;;;;10.48;6.28;;;;;;;12.49;100.00;99823.59;5092338;28;20071;-47
2024/02/25 10:02:56;;;;;;;11.50;6.18;;;;;;;12.56;100.00;99822.19;5092119;28;20389;-47
2024/02/25 10:05:26;;;;;;;10.95;6.60;;;;;;;12.69;100.00;99815.91;5091933;28;20048;-46
2024/02/25 10:08:04;;;;;;;9.38;6.22;;;;;;;12.82;100.00;99816.66;5090591;28;20052;-46
2024/02/25 10:10:33;;;;;;;9.88;6.20;;;;;;;12.97;100.00;99809.31;5091975;28;20056;-50
2024/02/25 10:13:05;;;;;;;10.57;5.70;;;;;;;12.89;98.59;99807.22;5091659;28;20048;-48
2024/02/25 10:15:33;;;;;;;10.98;6.43;;;;;;;13.10;98.53;99805.53;5091762;28;20060;-54
2024/02/25 10:18:01;;;;;;;10.40;6.30;;;;;;;13.34;97.74;99807.31;5091703;28;20402;-48
2024/02/25 10:20:30;;;;;;;11.25;6.68;;;;;;;13.18;96.53;99796.91;5092183;28;20048;-50
2024/02/25 10:23:10;;;;;;;8.73;5.68;;;;;;;13.32;96.08;99801.25;5092875;28;20055;-48
2024/02/25 10:25:40;;;;;;;10.35;6.40;;;;;;;13.14;95.31;99793.63;5092481;28;20047;-47
2024/02/25 10:28:13;;;;;;;11.57;5.85;;;;;;;13.17;95.35;99800.56;5091295;28;20133;-48
2024/02/25 10:30:57;;;;;;;11.43;6.10;;;;;;;13.36;94.38;99792.84;5091550;28;20347;-50
2024/02/25 10:33:26;;;;;;;10.27;5.75;;;;;;;13.49;93.22;99789.16;5091400;28;20371;-48
2024/02/25 10:36:02;;;;;;;10.68;6.28;;;;;;;13.54;92.66;99782.50;5091696;28;20055;-49
2024/02/25 10:38:33;;;;;;;10.13;6.43;;;;;;;13.48;92.63;99787.47;5091199;28;20141;-49
2024/02/25 10:41:02;;;;;;;11.93;6.63;;;;;;;13.39;93.01;99781.00;5091232;28;20426;-47
2024/02/25 10:43:33;;;;;;;9.10;6.05;;;;;;;13.46;93.18;99784.91;5091017;28;20493;-50
2024/02/25 10:46:17;;;;;;;9.98;6.00;;;;;;;13.50;92.47;99781.00;5091550;28;20109;-50
2024/02/25 10:48:46;;;;;;;9.07;6.07;;;;;;;13.61;92.52;99786.38;5092646;28;20052;-52
2024/02/25 10:51:19;;;;;;;8.63;5.65;;;;;;;13.69;90.53;99781.25;5093105;28;20143;-51
2024/02/25 10:53:49;;;;;;;9.63;5.38;;;;;;;13.72;90.90;99774.81;5092179;28;20052;-53
2024/02/25 10:56:20;;;;;;;10.80;5.20;;;;;;;13.76;89.34;99770.88;5092659;28;20558;-48
2024/02/25 10:58:50;;;;;;;8.65;5.20;;;;;;;13.83;88.96;99766.75;5092107;28;20048;-49
2024/02/25 11:01:20;;;;;;;9.75;5.50;;;;;;;13.89;88.01;99768.06;5091498;28;20048;-51
2024/02/25 11:03:49;;;;;;;6.45;4.10;;;;;;;13.78;84.65;99752.84;5091483;28;20048;-51
2024/02/25 11:06:30;;;;;;;7.60;3.80;;;;;;;13.72;81.96;99753.34;5091660;28;20052;-52
2024/02/25 11:09:08;;;;;;;6.55;3.50;;;;;;;13.51;82.70;99744.34;5091090;28;20499;-50
2024/02/25 11:11:37;;;;;;;8.93;3.90;;;;;;;13.68;81.87;99752.72;5090908;28;20128;-48
2024/02/25 11:14:06;;;;;;;7.30;3.38;;;;;;;13.78;80.69;99741.28;5091003;28;20535;-46
2024/02/25 11:16:39;;;;;;;7.10;3.30;;;;;;;13.88;80.80;99736.84;5091065;28;20059;-49
2024/02/25 11:19:08;;;;;;;7.72;3.50;;;;;;;13.88;79.16;99742.22;5093653;28;20052;-48
2024/02/25 11:21:37;;;;;;;5.70;3.33;;;;;;;13.97;78.65;99733.44;5095101;28;20446;-47
2024/02/25 11:24:12;;;;;;;5.65;3.00;;;;;;;13.99;79.19;99729.66;5095188;28;20054;-47
2024/02/25 11:26:41;;;;;;;5.22;3.30;;;;;;;13.88;79.31;99731.50;5095159;28;20067;-49
2024/02/25 11:29:17;;;;;;;6.60;3.78;;;;;;;13.93;78.59;99722.13;5094987;28;20084;-49
2024/02/25 11:31:55;;;;;;;7.57;3.63;;;;;;;14.05;78.14;99722.91;5095090;28;20648;-48
2024/02/25 11:34:25;;;;;;;6.50;4.90;;;;;;;14.04;79.03;99721.22;5095365;28;20281;-47
2024/02/25 11:36:57;;;;;;;8.18;4.88;;;;;;;14.09;80.17;99713.66;5094984;28;20515;-47